createdAt,value
2018-07-13T00:00:14.661Z,19.29
2018-07-13T00:02:42.285Z,19.33
2018-07-13T00:05:09.937Z,19.17
2018-07-13T00:07:37.619Z,19.13
2018-07-13T00:12:52.711Z,19.16
2018-07-13T00:15:20.379Z,19.07
2018-07-13T00:17:48.006Z,18.91
2018-07-13T00:20:15.709Z,18.96
2018-07-13T00:22:43.418Z,18.89
2018-07-13T00:25:11.150Z,18.80
2018-07-13T00:27:38.829Z,18.82
2018-07-13T00:30:06.469Z,18.82
2018-07-13T00:32:34.102Z,18.86
2018-07-13T00:35:01.710Z,18.91
2018-07-13T00:37:29.314Z,18.89
2018-07-13T00:39:56.903Z,18.76
2018-07-13T00:42:24.494Z,18.68
2018-07-13T00:44:52.094Z,18.66
2018-07-13T00:47:19.783Z,18.58
2018-07-13T00:49:47.402Z,18.72
2018-07-13T00:52:15.195Z,18.63
2018-07-13T00:54:42.842Z,18.66
2018-07-13T00:57:10.570Z,18.68
2018-07-13T00:59:38.205Z,18.53
2018-07-13T01:02:05.787Z,18.43
2018-07-13T01:04:33.402Z,18.35
2018-07-13T01:07:00.954Z,18.33
2018-07-13T01:09:28.657Z,18.39
2018-07-13T01:11:56.324Z,18.49
2018-07-13T01:14:23.861Z,18.39
2018-07-13T01:16:51.562Z,18.28
2018-07-13T01:19:19.197Z,18.34
2018-07-13T01:21:47.085Z,18.21
2018-07-13T01:24:14.671Z,17.96
2018-07-13T01:26:42.730Z,18.04
2018-07-13T01:29:10.318Z,18.06
2018-07-13T01:31:37.873Z,18.13
2018-07-13T01:34:05.625Z,18.23
2018-07-13T01:36:33.178Z,17.99
2018-07-13T01:39:00.803Z,17.89
2018-07-13T01:41:28.382Z,18.06
2018-07-13T01:43:56.014Z,18.08
2018-07-13T01:46:23.586Z,17.98
2018-07-13T01:48:51.181Z,18.00
2018-07-13T01:51:18.760Z,18.06
2018-07-13T01:53:46.331Z,17.94
2018-07-13T01:56:14.010Z,17.87
2018-07-13T01:58:41.587Z,17.64
2018-07-13T02:01:09.257Z,17.51
2018-07-13T02:03:36.938Z,17.54
2018-07-13T02:06:05.018Z,17.58
2018-07-13T02:08:33.017Z,17.47
2018-07-13T02:11:00.724Z,17.36
2018-07-13T02:13:28.395Z,17.42
2018-07-13T02:15:56.097Z,17.45
2018-07-13T02:18:23.651Z,17.38
2018-07-13T02:20:51.246Z,17.43
2018-07-13T02:23:18.826Z,17.50
2018-07-13T02:25:46.490Z,17.47
2018-07-13T02:28:14.063Z,17.42
2018-07-13T02:30:41.637Z,17.48
2018-07-13T02:33:09.210Z,17.38
2018-07-13T02:35:36.810Z,17.43
2018-07-13T02:38:04.513Z,17.52
2018-07-13T02:40:32.151Z,17.51
2018-07-13T02:42:59.707Z,17.61
2018-07-13T02:45:27.348Z,17.65
2018-07-13T02:47:54.995Z,17.76
2018-07-13T02:50:22.583Z,17.65
2018-07-13T02:52:50.293Z,17.57
2018-07-13T02:55:17.921Z,17.28
2018-07-13T02:57:45.642Z,17.03
2018-07-13T03:00:13.246Z,16.96
2018-07-13T03:02:40.868Z,16.96
2018-07-13T03:05:08.578Z,16.93
2018-07-13T03:07:36.238Z,17.07
2018-07-13T03:12:44.222Z,16.87
2018-07-13T03:15:11.794Z,16.70
2018-07-13T03:17:39.466Z,16.62
2018-07-13T03:20:07.074Z,16.71
2018-07-13T03:22:34.634Z,16.77
2018-07-13T03:25:02.255Z,16.86
2018-07-13T03:27:29.925Z,16.99
2018-07-13T03:29:57.534Z,17.01
2018-07-13T03:32:25.169Z,16.92
2018-07-13T03:34:52.734Z,16.72
2018-07-13T03:37:20.365Z,16.68
2018-07-13T03:39:48.025Z,16.64
2018-07-13T03:42:15.597Z,16.65
2018-07-13T03:44:43.239Z,16.57
2018-07-13T03:47:10.922Z,16.59
2018-07-13T03:49:38.585Z,16.61
2018-07-13T03:52:06.542Z,16.69
2018-07-13T03:54:34.106Z,16.89
2018-07-13T03:57:01.761Z,16.76
2018-07-13T03:59:29.456Z,16.99
2018-07-13T04:01:57.175Z,17.19
2018-07-13T04:04:24.858Z,17.39
2018-07-13T04:06:52.848Z,17.39
2018-07-13T04:09:20.525Z,17.47
2018-07-13T04:11:48.114Z,17.59
2018-07-13T04:14:15.822Z,17.69
2018-07-13T04:16:43.662Z,17.75
2018-07-13T04:19:11.254Z,17.65
2018-07-13T04:21:39.317Z,17.51
2018-07-13T04:24:07.153Z,17.60
2018-07-13T04:26:34.890Z,17.66
2018-07-13T04:29:02.548Z,17.65
2018-07-13T04:31:31.294Z,17.62
2018-07-13T04:33:58.879Z,17.44
2018-07-13T04:36:26.529Z,17.57
2018-07-13T04:38:54.181Z,17.79
2018-07-13T04:41:22.044Z,17.90
2018-07-13T04:43:49.802Z,18.04
2018-07-13T04:46:17.406Z,18.04
2018-07-13T04:48:45.078Z,17.99
2018-07-13T04:51:12.815Z,18.05
2018-07-13T04:53:40.599Z,18.02
2018-07-13T04:56:08.258Z,17.74
2018-07-13T04:58:36.122Z,17.70
2018-07-13T05:01:03.823Z,17.68
2018-07-13T05:03:31.509Z,17.73
2018-07-13T05:05:59.130Z,17.90
2018-07-13T05:08:27.142Z,17.92
2018-07-13T05:10:54.887Z,17.73
2018-07-13T05:13:23.040Z,18.21
2018-07-13T05:15:50.867Z,18.50
2018-07-13T05:18:18.450Z,18.46
2018-07-13T05:20:46.127Z,18.54
2018-07-13T05:23:13.862Z,18.74
2018-07-13T05:25:41.565Z,18.85
2018-07-13T05:28:09.233Z,19.09
2018-07-13T05:30:36.866Z,19.40
2018-07-13T05:33:04.880Z,19.33
2018-07-13T05:35:32.550Z,19.07
2018-07-13T05:38:00.201Z,19.53
2018-07-13T05:40:27.858Z,19.72
2018-07-13T05:42:55.545Z,19.61
2018-07-13T05:45:23.314Z,19.46
2018-07-13T05:47:51.073Z,19.53
2018-07-13T05:50:18.716Z,19.92
2018-07-13T05:52:46.386Z,19.64
2018-07-13T05:55:14.102Z,20.15
2018-07-13T05:57:41.822Z,20.43
2018-07-13T06:00:09.535Z,20.44
2018-07-13T06:02:37.350Z,20.70
2018-07-13T06:05:04.996Z,21.25
2018-07-13T06:07:33.736Z,21.60
2018-07-13T06:10:01.462Z,21.69
2018-07-13T06:12:29.206Z,21.46
2018-07-13T06:14:57.763Z,21.26
2018-07-13T06:17:25.501Z,21.45
2018-07-13T06:19:53.226Z,21.32
2018-07-13T06:22:20.846Z,21.43
2018-07-13T06:24:48.509Z,22.03
2018-07-13T06:27:16.221Z,21.48
2018-07-13T06:29:43.822Z,21.52
2018-07-13T06:32:11.533Z,21.65
2018-07-13T06:34:39.125Z,22.42
2018-07-13T06:37:06.880Z,22.27
2018-07-13T06:39:34.530Z,22.32
2018-07-13T06:42:02.194Z,23.16
2018-07-13T06:44:29.859Z,23.14
2018-07-13T06:46:57.497Z,23.93
2018-07-13T06:49:25.182Z,24.58
2018-07-13T06:51:52.926Z,24.36
2018-07-13T06:54:20.514Z,23.99
2018-07-13T06:56:48.167Z,24.47
2018-07-13T06:59:17.990Z,24.32
2018-07-13T07:01:46.601Z,24.93
2018-07-13T07:04:26.926Z,25.40
2018-07-13T07:06:55.386Z,25.28
2018-07-13T07:09:23.963Z,25.49
2018-07-13T07:13:08.807Z,25.37
2018-07-13T07:15:37.565Z,25.43
2018-07-13T07:18:06.129Z,26.25
2018-07-13T07:20:33.875Z,26.47
2018-07-13T07:23:01.468Z,26.85
2018-07-13T07:25:29.510Z,27.00
2018-07-13T07:27:57.401Z,27.00
2018-07-13T07:30:25.835Z,27.25
2018-07-13T07:32:53.435Z,27.30
2018-07-13T07:35:21.132Z,27.45
2018-07-13T07:37:48.798Z,27.19
2018-07-13T07:40:17.402Z,27.33
2018-07-13T07:42:45.126Z,27.61
2018-07-13T07:45:12.873Z,27.90
2018-07-13T07:47:41.630Z,28.25
2018-07-13T07:50:09.295Z,28.43
2018-07-13T07:52:36.897Z,28.65
2018-07-13T07:55:04.602Z,28.69
2018-07-13T07:57:33.385Z,28.58
2018-07-13T08:00:01.122Z,28.97
2018-07-13T08:02:28.716Z,28.98
2018-07-13T08:04:56.466Z,28.97
2018-07-13T08:07:24.220Z,29.09
2018-07-13T08:09:51.807Z,29.30
2018-07-13T08:12:19.561Z,29.22
2018-07-13T08:14:47.247Z,29.40
2018-07-13T08:17:14.895Z,29.46
2018-07-13T08:19:42.562Z,29.22
2018-07-13T08:22:18.936Z,29.38
2018-07-13T08:24:46.574Z,29.48
2018-07-13T08:27:19.609Z,29.15
2018-07-13T08:29:47.658Z,29.22
2018-07-13T08:32:15.334Z,29.30
2018-07-13T08:34:42.962Z,29.39
2018-07-13T08:37:10.664Z,29.51
2018-07-13T08:39:38.331Z,29.68
2018-07-13T08:42:06.168Z,29.72
2018-07-13T08:44:33.915Z,29.62
2018-07-13T08:47:01.571Z,29.66
2018-07-13T08:49:29.299Z,29.74
2018-07-13T08:51:56.986Z,29.58
2018-07-13T08:54:24.644Z,29.70
2018-07-13T08:56:53.130Z,29.62
2018-07-13T08:59:21.363Z,29.81
2018-07-13T09:01:49.082Z,30.00
2018-07-13T09:04:16.800Z,30.24
2018-07-13T09:06:44.550Z,30.40
2018-07-13T09:09:15.012Z,30.42
2018-07-13T09:11:42.756Z,30.21
2018-07-13T09:14:10.463Z,30.31
2018-07-13T09:16:38.125Z,30.55
2018-07-13T09:19:06.251Z,30.62
2018-07-13T09:21:33.899Z,30.73
2018-07-13T09:24:02.288Z,30.74
2018-07-13T09:26:29.941Z,30.76
2018-07-13T09:28:57.648Z,30.64
2018-07-13T09:31:25.296Z,30.66
2018-07-13T09:33:52.937Z,30.85
2018-07-13T09:36:20.654Z,30.99
2018-07-13T09:38:48.266Z,30.82
2018-07-13T09:41:15.966Z,30.88
2018-07-13T09:43:43.806Z,30.64
2018-07-13T09:46:11.505Z,30.80
2018-07-13T09:48:39.157Z,30.89
2018-07-13T09:51:06.840Z,31.07
2018-07-13T09:53:34.776Z,30.84
2018-07-13T09:56:02.359Z,30.93
2018-07-13T09:58:33.606Z,31.13
2018-07-13T10:01:06.928Z,31.04
2018-07-13T10:03:34.707Z,31.31
2018-07-13T10:06:02.758Z,31.47
2018-07-13T10:08:31.266Z,31.66
2018-07-13T10:10:59.017Z,31.77
2018-07-13T10:13:26.714Z,31.51
2018-07-13T10:15:54.898Z,31.41
2018-07-13T10:18:22.588Z,31.29
2018-07-13T10:20:50.579Z,31.38
2018-07-13T10:23:18.566Z,31.60
2018-07-13T10:25:47.787Z,31.43
2018-07-13T10:28:15.881Z,31.49
2018-07-13T10:30:43.578Z,31.36
2018-07-13T10:33:12.237Z,31.57
2018-07-13T10:35:41.062Z,31.66
2018-07-13T10:38:08.818Z,31.68
2018-07-13T10:40:36.564Z,31.87
2018-07-13T10:43:04.275Z,32.01
2018-07-13T10:45:32.503Z,31.63
2018-07-13T10:48:00.199Z,31.61
2018-07-13T10:50:27.946Z,31.71
2018-07-13T10:52:56.308Z,32.03
2018-07-13T10:55:26.211Z,32.30
2018-07-13T10:57:54.820Z,32.53
2018-07-13T11:00:22.548Z,32.60
2018-07-13T11:02:50.244Z,32.75
2018-07-13T11:05:17.809Z,32.41
2018-07-13T11:07:45.439Z,32.14
2018-07-13T11:10:34.286Z,31.84
2018-07-13T11:13:02.215Z,31.70
2018-07-13T11:15:29.834Z,31.82
2018-07-13T11:17:57.475Z,31.94
2018-07-13T11:20:25.107Z,31.43
2018-07-13T11:22:52.827Z,31.73
2018-07-13T11:25:21.134Z,31.50
2018-07-13T11:27:49.470Z,31.34
2018-07-13T11:30:17.140Z,31.22
2018-07-13T11:32:44.836Z,31.04
2018-07-13T11:35:12.580Z,31.50
2018-07-13T11:37:40.253Z,31.62
2018-07-13T11:40:07.874Z,31.64
2018-07-13T11:42:35.551Z,31.75
2018-07-13T11:45:03.159Z,31.85
2018-07-13T11:47:30.875Z,31.97
2018-07-13T11:49:58.486Z,32.02
2018-07-13T11:52:26.375Z,31.96
2018-07-13T11:54:54.060Z,31.85
2018-07-13T11:57:21.716Z,31.88
2018-07-13T11:59:49.390Z,32.41
2018-07-13T12:02:17.051Z,32.63
2018-07-13T12:04:44.705Z,32.87
2018-07-13T12:07:12.310Z,33.09
2018-07-13T12:09:39.904Z,32.93
2018-07-13T12:12:07.511Z,33.14
2018-07-13T12:14:35.155Z,32.59
2018-07-13T12:17:02.738Z,33.00
2018-07-13T12:19:30.366Z,33.45
2018-07-13T12:21:57.963Z,33.89
2018-07-13T12:24:25.582Z,34.08
2018-07-13T12:26:53.314Z,34.33
2018-07-13T12:29:20.927Z,33.86
2018-07-13T12:31:48.633Z,32.57
2018-07-13T12:34:16.256Z,31.45
2018-07-13T12:36:43.906Z,32.23
2018-07-13T12:39:11.587Z,32.92
2018-07-13T12:41:39.198Z,34.29
2018-07-13T12:44:06.927Z,34.87
2018-07-13T12:46:34.590Z,35.16
2018-07-13T12:49:02.221Z,35.67
2018-07-13T12:51:29.870Z,36.68
2018-07-13T12:53:57.503Z,36.97
2018-07-13T12:56:25.084Z,36.96
2018-07-13T12:58:52.715Z,36.87
2018-07-13T13:01:20.416Z,36.77
2018-07-13T13:03:48.015Z,36.41
2018-07-13T13:06:15.678Z,36.14
2018-07-13T13:08:43.294Z,35.95
2018-07-13T13:11:10.980Z,35.77
2018-07-13T13:13:38.592Z,35.36
2018-07-13T13:16:06.186Z,34.96
2018-07-13T13:18:33.861Z,34.78
2018-07-13T13:21:01.538Z,34.16
2018-07-13T13:23:29.251Z,35.00
2018-07-13T13:25:57.064Z,35.48
2018-07-13T13:28:24.759Z,33.00
2018-07-13T13:30:52.376Z,33.71
2018-07-13T13:33:20.048Z,33.73
2018-07-13T13:35:47.975Z,34.13
2018-07-13T13:38:15.588Z,33.94
2018-07-13T13:40:43.250Z,33.87
2018-07-13T13:43:10.910Z,33.60
2018-07-13T13:45:38.497Z,33.59
2018-07-13T13:48:06.290Z,33.86
2018-07-13T13:50:33.889Z,33.89
2018-07-13T13:53:01.558Z,33.54
2018-07-13T13:55:29.162Z,33.38
2018-07-13T13:57:56.783Z,33.22
2018-07-13T14:00:24.428Z,33.11
2018-07-13T14:02:52.033Z,33.11
2018-07-13T14:05:20.414Z,33.29
2018-07-13T14:07:47.943Z,33.40
2018-07-13T14:10:16.254Z,33.22
2018-07-13T14:12:43.901Z,33.37
2018-07-13T14:15:11.582Z,33.60
2018-07-13T14:17:39.222Z,33.63
2018-07-13T14:20:06.937Z,33.48
2018-07-13T14:22:34.569Z,33.28
2018-07-13T14:25:03.315Z,33.10
2018-07-13T14:27:31.268Z,32.67
2018-07-13T14:29:58.878Z,32.42
2018-07-13T14:32:26.480Z,32.00
2018-07-13T14:34:54.081Z,32.00
2018-07-13T14:37:21.675Z,32.17
2018-07-13T14:39:49.407Z,32.39
2018-07-13T14:42:17.012Z,32.67
2018-07-13T14:44:44.893Z,33.05
2018-07-13T14:47:12.675Z,33.21
2018-07-13T14:49:40.349Z,32.98
2018-07-13T14:52:07.979Z,33.23
2018-07-13T14:54:35.570Z,33.32
2018-07-13T14:57:03.211Z,33.27
2018-07-13T14:59:31.070Z,33.56
2018-07-13T15:01:58.714Z,33.68
2018-07-13T15:04:26.487Z,33.70
2018-07-13T15:06:54.175Z,33.66
2018-07-13T15:09:21.895Z,33.20
2018-07-13T15:11:49.549Z,33.08
2018-07-13T15:14:17.212Z,33.20
2018-07-13T15:16:44.894Z,33.20
2018-07-13T15:19:12.643Z,33.05
2018-07-13T15:21:40.326Z,32.97
2018-07-13T15:24:08.885Z,32.93
2018-07-13T15:26:36.475Z,32.92
2018-07-13T15:29:04.234Z,32.80
2018-07-13T15:31:31.854Z,32.39
2018-07-13T15:33:59.479Z,32.14
2018-07-13T15:36:27.171Z,32.28
2018-07-13T15:38:54.766Z,32.32
2018-07-13T15:41:22.375Z,32.39
2018-07-13T15:43:50.006Z,32.58
2018-07-13T15:46:17.610Z,32.70
2018-07-13T15:48:45.279Z,32.70
2018-07-13T15:51:12.961Z,32.68
2018-07-13T15:53:40.569Z,32.50
2018-07-13T15:56:08.285Z,32.66
2018-07-13T15:58:35.933Z,32.63
2018-07-13T16:01:03.514Z,32.51
2018-07-13T16:03:31.183Z,32.48
2018-07-13T16:05:58.811Z,32.58
2018-07-13T16:08:26.483Z,32.63
2018-07-13T16:10:54.326Z,32.60
2018-07-13T16:13:22.035Z,32.66
2018-07-13T16:15:49.688Z,32.49
2018-07-13T16:18:18.650Z,32.32
2018-07-13T16:20:47.270Z,32.42
2018-07-13T16:23:14.977Z,32.54
2018-07-13T16:25:43.348Z,32.55
2018-07-13T16:28:11.120Z,32.60
2018-07-13T16:30:38.675Z,32.57
2018-07-13T16:33:06.815Z,32.65
2018-07-13T16:35:34.413Z,32.79
2018-07-13T16:38:02.177Z,32.40
2018-07-13T16:40:29.808Z,32.47
2018-07-13T16:42:57.502Z,32.47
2018-07-13T16:45:25.186Z,32.44
2018-07-13T16:47:52.791Z,32.40
2018-07-13T16:50:20.432Z,32.17
2018-07-13T16:52:48.163Z,32.32
2018-07-13T16:55:15.778Z,32.16
2018-07-13T16:57:43.419Z,32.24
2018-07-13T17:00:11.090Z,32.27
2018-07-13T17:02:38.755Z,32.35
2018-07-13T17:05:08.470Z,32.44
2018-07-13T17:07:36.083Z,32.60
2018-07-13T17:12:38.007Z,32.42
2018-07-13T17:15:06.351Z,32.40
2018-07-13T17:17:34.049Z,32.37
2018-07-13T17:20:01.649Z,32.27
2018-07-13T17:22:29.269Z,31.98
2018-07-13T17:24:57.135Z,31.72
2018-07-13T17:27:24.714Z,31.76
2018-07-13T17:29:52.353Z,31.85
2018-07-13T17:32:19.950Z,31.72
2018-07-13T17:34:47.662Z,31.66
2018-07-13T17:37:15.335Z,31.64
2018-07-13T17:39:42.927Z,31.54
2018-07-13T17:42:10.667Z,31.48
2018-07-13T17:44:38.351Z,31.39
2018-07-13T17:47:06.018Z,31.34
2018-07-13T17:49:33.657Z,31.19
2018-07-13T17:52:01.234Z,31.15
2018-07-13T17:54:28.858Z,31.19
2018-07-13T17:56:56.520Z,31.16
2018-07-13T17:59:24.115Z,31.17
2018-07-13T18:01:51.753Z,31.12
2018-07-13T18:04:19.462Z,30.98
2018-07-13T18:06:47.116Z,30.85
2018-07-13T18:09:14.833Z,30.88
2018-07-13T18:11:42.446Z,30.86
2018-07-13T18:14:10.057Z,30.77
2018-07-13T18:16:37.796Z,30.68
2018-07-13T18:19:05.847Z,30.54
2018-07-13T18:21:33.949Z,30.41
2018-07-13T18:24:01.880Z,30.38
2018-07-13T18:26:29.696Z,30.30
2018-07-13T18:28:57.437Z,30.16
2018-07-13T18:31:25.044Z,30.05
2018-07-13T18:33:52.647Z,30.01
2018-07-13T18:36:20.388Z,30.00
2018-07-13T18:38:48.055Z,29.86
2018-07-13T18:41:15.710Z,29.80
2018-07-13T18:43:43.670Z,29.78
2018-07-13T18:46:11.752Z,29.71
2018-07-13T18:48:39.666Z,29.56
2018-07-13T18:51:07.802Z,29.52
2018-07-13T18:53:35.450Z,29.43
2018-07-13T18:56:03.212Z,29.35
2018-07-13T18:58:30.830Z,29.28
2018-07-13T19:00:58.502Z,29.26
2018-07-13T19:03:26.113Z,29.18
2018-07-13T19:05:53.715Z,29.14
2018-07-13T19:08:21.439Z,29.05
2018-07-13T19:10:49.155Z,28.98
2018-07-13T19:13:16.876Z,28.90
2018-07-13T19:15:44.446Z,28.83
2018-07-13T19:18:12.180Z,28.73
2018-07-13T19:20:39.820Z,28.68
2018-07-13T19:23:08.474Z,28.63
2018-07-13T19:25:36.139Z,28.54
2018-07-13T19:28:03.874Z,28.58
2018-07-13T19:30:31.606Z,28.50
2018-07-13T19:32:59.139Z,28.44
2018-07-13T19:35:26.830Z,28.38
2018-07-13T19:37:54.562Z,28.34
2018-07-13T19:40:22.262Z,28.23
2018-07-13T19:42:49.902Z,28.23
2018-07-13T19:45:17.573Z,28.24
2018-07-13T19:47:45.143Z,28.18
2018-07-13T19:50:12.796Z,28.17
2018-07-13T19:52:40.476Z,28.18
2018-07-13T19:55:08.117Z,28.08
2018-07-13T19:57:35.814Z,28.10
2018-07-13T20:00:03.783Z,27.90
2018-07-13T20:02:31.392Z,27.93
2018-07-13T20:04:59.080Z,27.92
2018-07-13T20:07:26.670Z,27.88
2018-07-13T20:09:54.303Z,27.80
2018-07-13T20:12:21.943Z,27.70
2018-07-13T20:14:49.715Z,27.59
2018-07-13T20:17:17.358Z,27.56
2018-07-13T20:19:45.043Z,27.51
2018-07-13T20:22:14.822Z,27.53
2018-07-13T20:24:42.590Z,27.45
2018-07-13T20:27:10.186Z,27.34
2018-07-13T20:29:37.902Z,27.33
2018-07-13T20:32:05.610Z,27.27
2018-07-13T20:34:33.320Z,27.19
2018-07-13T20:37:00.970Z,27.15
2018-07-13T20:39:28.675Z,27.15
2018-07-13T20:41:56.351Z,27.07
2018-07-13T20:44:23.995Z,26.99
2018-07-13T20:46:51.710Z,26.91
2018-07-13T20:49:19.318Z,26.86
2018-07-13T20:51:46.962Z,26.79
2018-07-13T20:54:14.624Z,26.73
2018-07-13T20:56:42.229Z,26.62
2018-07-13T20:59:09.862Z,26.56
2018-07-13T21:01:38.088Z,26.47
2018-07-13T21:04:05.921Z,26.39
2018-07-13T21:06:33.677Z,26.35
2018-07-13T21:09:01.298Z,26.34
2018-07-13T21:11:29.968Z,26.29
2018-07-13T21:13:57.626Z,26.21
2018-07-13T21:18:59.796Z,26.07
2018-07-13T21:21:27.480Z,25.94
2018-07-13T21:23:55.093Z,25.89
2018-07-13T21:26:22.778Z,25.84
2018-07-13T21:28:50.433Z,25.81
2018-07-13T21:31:18.054Z,25.74
2018-07-13T21:33:52.291Z,25.63
2018-07-13T21:36:20.375Z,25.46
2018-07-13T21:38:48.101Z,25.46
2018-07-13T21:41:16.325Z,25.49
2018-07-13T21:43:43.910Z,25.38
2018-07-13T21:46:11.694Z,25.23
2018-07-13T21:48:39.378Z,25.19
2018-07-13T21:51:06.981Z,25.21
2018-07-13T21:53:34.678Z,25.17
2018-07-13T21:56:02.593Z,25.13
2018-07-13T21:58:30.291Z,25.01
2018-07-13T22:00:57.908Z,24.99
2018-07-13T22:03:27.825Z,24.88
2018-07-13T22:05:55.577Z,24.78
2018-07-13T22:08:23.158Z,24.74
2018-07-13T22:10:50.738Z,24.68
2018-07-13T22:13:18.414Z,24.67
2018-07-13T22:15:45.990Z,24.65
2018-07-13T22:18:13.626Z,24.63
2018-07-13T22:20:41.305Z,24.56
2018-07-13T22:23:08.867Z,24.47
2018-07-13T22:25:36.596Z,24.33
2018-07-13T22:28:06.709Z,24.25
2018-07-13T22:30:35.458Z,24.24
2018-07-13T22:33:03.087Z,24.16
2018-07-13T22:35:30.699Z,24.14
2018-07-13T22:37:58.289Z,24.04
2018-07-13T22:40:25.988Z,23.94
2018-07-13T22:42:53.530Z,23.91
2018-07-13T22:45:21.178Z,23.91
2018-07-13T22:47:48.759Z,23.93
2018-07-13T22:50:16.394Z,23.94
2018-07-13T22:52:43.994Z,23.90
2018-07-13T22:55:11.665Z,23.85
2018-07-13T22:57:39.194Z,23.75
2018-07-13T23:00:07.515Z,23.62
2018-07-13T23:02:35.095Z,23.60
2018-07-13T23:05:02.675Z,23.57
2018-07-13T23:07:30.416Z,23.50
2018-07-13T23:09:58.030Z,23.41
2018-07-13T23:12:25.918Z,23.38
2018-07-13T23:14:53.546Z,23.35
2018-07-13T23:17:21.204Z,23.34
2018-07-13T23:19:48.877Z,23.28
2018-07-13T23:22:16.557Z,23.19
2018-07-13T23:24:44.139Z,23.15
2018-07-13T23:27:11.782Z,23.12
2018-07-13T23:29:39.444Z,23.09
2018-07-13T23:32:07.406Z,23.05
2018-07-13T23:34:34.999Z,22.96
2018-07-13T23:37:02.602Z,22.90
2018-07-13T23:39:30.247Z,22.91
2018-07-13T23:41:57.911Z,22.84
2018-07-13T23:44:25.752Z,22.79
2018-07-13T23:46:53.409Z,22.74
2018-07-13T23:49:20.994Z,22.66
2018-07-13T23:51:48.598Z,22.67
2018-07-13T23:54:16.186Z,22.62
2018-07-13T23:56:43.746Z,22.57
2018-07-13T23:59:11.346Z,22.54
